Time;durP1;ratioP1;P1;durP2;ratioP2;P2;SDS_P1;SDS_P2;PMS_P1;PMS_P2;Temp;Humidity;BMP_temperature;BMP_pressure;BME280_temperature;BME280_humidity;BME280_pressure;Samples;Min_cycle;Max_cycle;Signal;HPM_P1;HPM_P2
2023/02/16 00:00:05;;;;;;;14.95;11.82;;;;;;;18.96;37.42;102336.56;5122144;27;20027;-64
2023/02/16 00:02:30;;;;;;;15.70;12.35;;;;;;;18.95;37.27;102336.66;5122066;27;20035;-68
2023/02/16 00:04:55;;;;;;;15.43;12.32;;;;;;;18.94;37.23;102340.22;5122089;27;20043;-67
2023/02/16 00:07:21;;;;;;;15.50;11.87;;;;;;;18.94;37.04;102340.22;5122126;27;20042;-65
2023/02/16 00:09:46;;;;;;;14.13;12.00;;;;;;;18.93;37.27;102343.78;5122129;27;20914;-67
2023/02/16 00:15:16;;;;;;;13.77;11.77;;;;;;;18.89;37.32;102344.94;5121558;27;20123;-65
2023/02/16 00:17:42;;;;;;;13.63;11.77;;;;;;;18.88;37.37;102343.22;5121860;27;20031;-67
2023/02/16 00:20:14;;;;;;;16.85;13.13;;;;;;;18.85;37.21;102345.13;5122171;27;20031;-65
2023/02/16 00:22:39;;;;;;;14.27;11.55;;;;;;;18.85;37.29;102334.56;5121903;27;20045;-65
2023/02/16 00:25:05;;;;;;;14.85;12.20;;;;;;;18.85;37.25;102333.72;5121733;27;20031;-66
2023/02/16 00:27:30;;;;;;;15.45;12.45;;;;;;;18.85;37.18;102347.78;5121650;27;20031;-64
2023/02/16 00:29:55;;;;;;;14.65;11.88;;;;;;;18.83;36.94;102348.75;5122226;28;20122;-65
2023/02/16 00:32:21;;;;;;;14.02;12.05;;;;;;;18.79;37.05;102337.53;5121860;28;20031;-66
2023/02/16 00:34:46;;;;;;;16.75;12.23;;;;;;;18.79;37.03;102336.69;5121866;28;20077;-65
2023/02/16 00:37:12;;;;;;;15.88;12.32;;;;;;;18.80;36.96;102341.00;5121751;28;20088;-66
2023/02/16 00:39:39;;;;;;;14.85;12.27;;;;;;;18.79;36.93;102347.25;5121849;27;20066;-66
2023/02/16 00:42:17;;;;;;;16.42;12.85;;;;;;;18.74;36.94;102341.38;5121909;27;20035;-67
2023/02/16 00:44:48;;;;;;;16.92;12.52;;;;;;;18.76;36.94;102343.00;5121896;27;20057;-67
2023/02/16 00:47:19;;;;;;;17.73;12.18;;;;;;;18.74;36.93;102336.97;5121483;27;20070;-65
2023/02/16 00:49:49;;;;;;;15.48;11.68;;;;;;;18.70;36.84;102335.44;5121402;28;20027;-65
2023/02/16 00:52:29;;;;;;;15.25;11.80;;;;;;;18.72;36.95;102338.00;5121761;28;20507;-66
2023/02/16 00:54:55;;;;;;;15.52;11.60;;;;;;;18.71;37.07;102331.88;5121228;27;20877;-66
2023/02/16 00:57:21;;;;;;;14.70;11.88;;;;;;;18.72;36.94;102335.34;5121486;28;20487;-66
2023/02/16 00:59:50;;;;;;;14.30;11.48;;;;;;;18.72;36.93;102340.63;5121672;28;20037;-66
2023/02/16 01:02:15;;;;;;;17.35;12.45;;;;;;;18.70;36.91;102331.97;5121482;28;20050;-66
2023/02/16 01:04:41;;;;;;;16.25;12.15;;;;;;;18.70;37.01;102329.31;5121230;27;20039;-66
2023/02/16 01:12:41;;;;;;;14.85;11.40;;;;;;;18.70;36.84;102324.88;5121421;27;20054;-67
2023/02/16 01:15:12;;;;;;;15.45;11.85;;;;;;;18.69;36.88;102317.88;5121260;27;20470;-67
2023/02/16 01:17:38;;;;;;;14.20;11.25;;;;;;;18.65;36.75;102314.59;5121805;28;20046;-68
2023/02/16 01:20:14;;;;;;;16.98;12.40;;;;;;;18.63;36.78;102316.50;5121568;28;20039;-66
2023/02/16 01:22:39;;;;;;;14.02;11.25;;;;;;;18.62;36.66;102320.06;5121394;28;20061;-67
2023/02/16 01:25:05;;;;;;;14.23;11.70;;;;;;;18.63;36.63;102323.56;5121393;28;20063;-65
2023/02/16 01:27:31;;;;;;;15.52;12.63;;;;;;;18.64;36.53;102325.25;5121314;27;20043;-65
2023/02/16 01:29:56;;;;;;;14.75;11.98;;;;;;;18.61;36.55;102314.88;5121408;28;20058;-64
2023/02/16 01:32:22;;;;;;;15.75;11.63;;;;;;;18.60;36.60;102310.56;5121361;27;20467;-67
2023/02/16 01:34:47;;;;;;;14.88;12.25;;;;;;;18.59;36.65;102306.19;5121362;28;20053;-67
2023/02/16 01:37:14;;;;;;;15.68;12.50;;;;;;;18.61;36.54;102310.47;5121038;27;20027;-65
2023/02/16 01:39:40;;;;;;;14.13;11.93;;;;;;;18.59;36.77;102301.75;5122760;27;20080;-66
2023/02/16 01:42:10;;;;;;;14.63;12.25;;;;;;;18.53;36.29;102282.81;5124800;27;20035;-65
2023/02/16 01:44:44;;;;;;;14.50;12.00;;;;;;;18.56;36.56;102288.75;5124531;27;20432;-65
2023/02/16 01:47:23;;;;;;;;;;;;;;;18.61;36.28;102281.41;5125086;27;20428;-65
2023/02/16 01:49:49;;;;;;;14.75;11.32;;;;;;;18.61;36.39;102273.50;5124902;27;19911;-65
2023/02/16 01:52:31;;;;;;;16.00;11.75;;;;;;;18.58;36.25;102278.09;5124640;27;20053;-66
2023/02/16 01:55:29;;;;;;;16.38;12.10;;;;;;;18.56;36.33;102277.34;5124550;27;20611;-65
2023/02/16 01:58:05;;;;;;;13.15;10.85;;;;;;;18.55;36.49;102280.91;5078689;27;20047;-66
2023/02/16 02:00:53;;;;;;;15.32;11.65;;;;;;;18.53;36.58;102275.72;5124330;27;20039;-65
2023/02/16 02:06:12;;;;;;;14.25;11.88;;;;;;;18.52;36.50;102281.97;5124312;27;20034;-65
2023/02/16 02:09:06;;;;;;;15.85;11.27;;;;;;;18.51;36.31;102274.13;5124580;27;20110;-64
2023/02/16 02:11:39;;;;;;;13.87;11.73;;;;;;;18.51;36.31;102274.13;5124412;27;20031;-65
2023/02/16 02:14:10;;;;;;;16.10;11.55;;;;;;;18.49;36.52;102276.88;5124044;27;20077;-67
2023/02/16 02:16:35;;;;;;;15.68;11.93;;;;;;;18.47;36.31;102266.41;5124303;27;20042;-64
2023/02/16 02:19:01;;;;;;;16.42;12.15;;;;;;;18.47;36.62;102273.47;5124173;27;20031;-66
2023/02/16 02:25:03;;;;;;;14.85;11.80;;;;;;;18.45;36.21;102264.78;5123664;27;20034;-66
2023/02/16 02:27:38;;;;;;;14.77;11.90;;;;;;;18.47;36.06;102262.91;5123703;27;20095;-64
2023/02/16 02:30:12;;;;;;;15.70;12.27;;;;;;;18.45;36.35;102265.66;5124154;27;20056;-65
2023/02/16 02:32:57;;;;;;;15.00;12.15;;;;;;;18.44;36.13;102263.94;5123882;27;20057;-65
2023/02/16 02:35:37;;;;;;;16.55;12.02;;;;;;;18.41;36.44;102258.84;5123754;27;20062;-65
2023/02/16 02:38:25;;;;;;;13.82;11.48;;;;;;;18.43;36.27;102259.59;5124081;27;20031;-65
2023/02/16 02:41:07;;;;;;;14.18;11.45;;;;;;;18.39;36.29;102247.53;5123931;27;20087;-66
2023/02/16 02:43:42;;;;;;;14.80;11.27;;;;;;;18.38;36.36;102245.84;5123189;27;20524;-66
2023/02/16 02:46:14;;;;;;;15.20;11.73;;;;;;;18.42;36.14;102243.84;5123900;27;20046;-65
2023/02/16 02:48:40;;;;;;;15.63;11.80;;;;;;;18.38;36.15;102237.91;5123611;27;20042;-65
2023/02/16 02:51:27;;;;;;;14.18;11.73;;;;;;;18.39;36.16;102238.75;5122982;27;20274;-65
2023/02/16 03:02:49;;;;;;;14.63;11.75;;;;;;;18.32;36.06;102225.09;5127199;27;20038;-65
2023/02/16 03:05:16;;;;;;;14.73;12.27;;;;;;;18.36;36.28;102229.25;5123309;27;20654;-66
2023/02/16 03:07:45;;;;;;;15.50;11.98;;;;;;;18.35;36.30;102231.97;5123329;27;20038;-66
2023/02/16 03:12:57;;;;;;;16.13;11.63;;;;;;;18.35;36.04;102230.19;5123253;27;20085;-65
2023/02/16 03:15:24;;;;;;;15.18;12.57;;;;;;;18.33;36.00;102229.44;5122798;27;20069;-66
2023/02/16 03:31:37;;;;;;;15.20;12.43;;;;;;;18.27;36.29;102214.81;5122625;27;20505;-65
2023/02/16 03:34:03;;;;;;;14.93;11.57;;;;;;;18.27;36.30;102208.69;5122616;27;20030;-66
2023/02/16 03:36:34;;;;;;;15.73;11.75;;;;;;;18.26;36.24;102217.53;5122503;27;20038;-66
2023/02/16 03:38:59;;;;;;;15.43;12.68;;;;;;;18.27;36.03;102214.81;5122702;27;20126;-65
2023/02/16 03:41:30;;;;;;;16.35;13.18;;;;;;;18.28;36.12;102216.50;5122535;27;20134;-66
2023/02/16 03:43:55;;;;;;;15.82;12.48;;;;;;;18.27;36.09;102203.41;5122563;27;20100;-66
2023/02/16 03:46:20;;;;;;;14.07;11.93;;;;;;;18.28;35.92;102199.84;5122317;27;20584;-65
2023/02/16 03:48:46;;;;;;;14.85;12.15;;;;;;;18.27;35.83;102198.97;5122466;27;20259;-64
2023/02/16 03:51:11;;;;;;;14.30;12.35;;;;;;;18.25;35.86;102205.31;5122439;27;20621;-65
2023/02/16 03:53:36;;;;;;;17.23;12.75;;;;;;;18.26;35.75;102212.25;5122482;27;20031;-67
2023/02/16 03:56:01;;;;;;;16.08;13.05;;;;;;;18.26;35.80;102206.97;5121794;27;20119;-65
2023/02/16 03:58:27;;;;;;;15.05;11.57;;;;;;;18.26;35.82;102209.63;5122470;27;20034;-64
2023/02/16 04:00:53;;;;;;;14.70;12.07;;;;;;;18.22;35.89;102206.31;5122150;27;20031;-66
2023/02/16 04:03:18;;;;;;;16.35;12.20;;;;;;;18.25;35.76;102205.31;5121953;27;20027;-64
2023/02/16 04:05:44;;;;;;;16.33;12.70;;;;;;;18.24;35.96;102217.63;5121996;27;20146;-66
2023/02/16 04:08:10;;;;;;;15.13;12.23;;;;;;;18.25;35.90;102221.13;5122561;27;20042;-65
2023/02/16 04:10:36;;;;;;;19.83;13.10;;;;;;;18.22;35.85;102214.25;5121744;27;20447;-66
2023/02/16 04:13:02;;;;;;;15.38;12.20;;;;;;;18.22;36.02;102216.88;5122245;27;20042;-65
2023/02/16 04:15:29;;;;;;;16.20;12.75;;;;;;;18.22;36.06;102214.25;5121785;27;20047;-66
2023/02/16 04:17:54;;;;;;;15.90;12.52;;;;;;;18.22;36.05;102214.25;5122029;27;20071;-66
2023/02/16 04:20:23;;;;;;;15.98;12.63;;;;;;;18.22;36.00;102218.69;5122235;27;20031;-67
2023/02/16 04:22:49;;;;;;;15.25;12.50;;;;;;;18.20;35.91;102212.63;5120508;27;20106;-65
2023/02/16 04:25:15;;;;;;;19.52;13.05;;;;;;;18.19;36.03;102210.94;5121355;27;20155;-65
2023/02/16 04:27:42;;;;;;;14.38;12.15;;;;;;;18.19;36.16;102219.69;5121843;28;20132;-67
2023/02/16 04:30:11;;;;;;;16.55;12.77;;;;;;;18.19;35.99;102222.34;5120445;27;20126;-64
2023/02/16 04:32:36;;;;;;;17.48;12.60;;;;;;;18.17;35.80;102218.09;5121936;28;20027;-65
2023/02/16 04:35:02;;;;;;;15.93;12.13;;;;;;;18.18;35.90;102230.34;5122063;28;20080;-65
2023/02/16 04:37:27;;;;;;;15.48;11.98;;;;;;;18.19;36.07;102227.59;5121222;27;20042;-64
2023/02/16 04:39:52;;;;;;;16.37;11.87;;;;;;;18.17;36.05;102223.38;5121617;28;20110;-65
2023/02/16 04:42:18;;;;;;;15.70;11.93;;;;;;;18.18;35.82;102214.50;5121533;27;20743;-65
2023/02/16 04:44:43;;;;;;;14.35;11.45;;;;;;;18.16;36.12;102217.25;5121899;28;20031;-65
2023/02/16 04:47:08;;;;;;;16.13;11.85;;;;;;;18.14;35.92;102216.50;5121510;28;20490;-67
2023/02/16 04:49:33;;;;;;;16.05;12.52;;;;;;;18.15;35.74;102212.06;5103607;28;20035;-66
2023/02/16 04:51:59;;;;;;;15.68;11.95;;;;;;;18.17;35.87;102220.75;5121937;27;20027;-65
2023/02/16 04:54:26;;;;;;;15.32;12.18;;;;;;;18.13;35.89;102215.66;5121345;28;20122;-66
2023/02/16 04:56:51;;;;;;;14.85;11.65;;;;;;;18.12;35.92;102223.66;5121518;27;20046;-66
2023/02/16 04:59:17;;;;;;;15.57;12.70;;;;;;;18.12;36.18;102223.66;5121767;28;20039;-65
2023/02/16 05:01:42;;;;;;;13.77;11.73;;;;;;;18.14;36.05;102224.41;5102870;28;20023;-65
2023/02/16 05:04:08;;;;;;;16.48;12.32;;;;;;;18.14;35.82;102224.41;5121314;28;20418;-66
2023/02/16 05:06:34;;;;;;;14.88;11.73;;;;;;;18.11;35.89;102228.06;5121621;27;20080;-64
2023/02/16 05:08:59;;;;;;;16.35;11.73;;;;;;;18.13;35.92;102222.69;5121332;27;20069;-65
2023/02/16 05:17:01;;;;;;;14.73;11.43;;;;;;;18.12;36.06;102213.94;5125413;27;20075;-65
2023/02/16 05:19:27;;;;;;;16.10;11.85;;;;;;;18.13;36.25;102209.50;5125356;27;20027;-65
2023/02/16 05:21:52;;;;;;;15.20;11.93;;;;;;;18.12;35.93;102216.59;5125254;27;20088;-63
2023/02/16 05:24:17;;;;;;;15.33;12.30;;;;;;;18.11;36.21;102203.47;5106119;27;20267;-65
2023/02/16 05:26:42;;;;;;;16.25;12.25;;;;;;;18.09;36.27;102195.66;5125518;27;20295;-65
2023/02/16 05:29:08;;;;;;;15.05;10.75;;;;;;;18.07;36.18;102200.19;5124943;27;20038;-65
2023/02/16 05:31:33;;;;;;;14.65;11.27;;;;;;;18.10;36.17;102226.38;5125165;27;20038;-67
2023/02/16 05:33:59;;;;;;;15.07;11.63;;;;;;;18.09;35.94;102223.84;5124870;27;20041;-64
2023/02/16 05:36:24;;;;;;;14.05;11.60;;;;;;;18.08;36.04;102209.78;5124646;27;20127;-66
2023/02/16 05:38:49;;;;;;;16.27;12.38;;;;;;;18.07;36.18;102186.13;5125115;27;20034;-65
2023/02/16 05:41:22;;;;;;;14.10;11.65;;;;;;;18.08;36.28;102185.19;5125095;27;20046;-65
2023/02/16 05:44:00;;;;;;;14.95;11.13;;;;;;;18.04;36.62;102188.94;5124729;27;20031;-64
2023/02/16 05:46:27;;;;;;;12.45;10.02;;;;;;;18.07;36.84;102194.03;5124583;27;20050;-64
2023/02/16 05:48:52;;;;;;;11.43;8.63;;;;;;;18.03;37.34;102190.75;5124991;27;20064;-66
2023/02/16 05:51:19;;;;;;;10.55;8.13;;;;;;;18.02;37.17;102199.59;5124799;27;20027;-65
2023/02/16 05:53:45;;;;;;;13.00;8.93;;;;;;;18.04;37.28;102220.59;5125031;27;20035;-65
2023/02/16 05:56:10;;;;;;;12.45;8.38;;;;;;;18.08;37.26;102222.13;5124375;27;20031;-65
2023/02/16 05:58:36;;;;;;;12.80;8.80;;;;;;;18.09;37.51;102206.22;5124692;27;20448;-65
2023/02/16 06:01:01;;;;;;;11.32;8.82;;;;;;;18.10;37.55;102204.41;5124611;27;20441;-68
2023/02/16 06:03:27;;;;;;;10.52;8.57;;;;;;;18.16;37.73;102205.84;5124365;27;20031;-64
2023/02/16 06:05:58;;;;;;;10.45;8.27;;;;;;;18.17;38.08;102194.38;5123978;27;20502;-65
2023/02/16 06:08:24;;;;;;;10.43;8.38;;;;;;;18.22;38.18;102194.94;5124660;27;20035;-66
2023/02/16 06:10:50;;;;;;;10.30;8.45;;;;;;;18.21;38.28;102199.34;5124054;27;20038;-66
2023/02/16 06:13:16;;;;;;;13.57;8.65;;;;;;;18.24;38.38;102183.31;5124479;27;20063;-64
2023/02/16 06:15:42;;;;;;;10.15;7.97;;;;;;;18.26;38.50;102184.09;5123913;27;20047;-65
2023/02/16 06:18:10;;;;;;;10.93;8.15;;;;;;;18.29;38.58;102190.97;5124104;27;20064;-64
2023/02/16 06:20:35;;;;;;;12.50;8.52;;;;;;;18.31;38.81;102184.66;5124376;27;20495;-65
2023/02/16 06:23:01;;;;;;;11.77;8.00;;;;;;;18.33;38.54;102191.66;5124226;27;20091;-64
2023/02/16 06:25:26;;;;;;;11.57;7.88;;;;;;;18.31;38.85;102175.91;5123608;27;20035;-68
2023/02/16 06:27:51;;;;;;;10.53;8.30;;;;;;;18.37;38.85;102178.13;5124116;27;20031;-66
2023/02/16 06:30:18;;;;;;;9.73;7.40;;;;;;;18.36;38.91;102183.50;5124102;27;20309;-64
2023/02/16 06:32:43;;;;;;;10.05;7.88;;;;;;;18.39;39.01;102197.38;5123782;27;20042;-65
2023/02/16 06:35:08;;;;;;;11.10;8.40;;;;;;;18.37;39.23;102201.91;5123534;27;20031;-66
2023/02/16 06:37:34;;;;;;;11.35;8.10;;;;;;;18.39;39.42;102196.53;5123943;27;20035;-65
2023/02/16 06:39:59;;;;;;;11.68;8.45;;;;;;;18.45;39.38;102210.22;5123844;27;20466;-67
2023/02/16 06:42:24;;;;;;;13.15;8.95;;;;;;;18.47;39.19;102207.47;5123700;27;20055;-66
2023/02/16 06:44:50;;;;;;;11.38;8.35;;;;;;;18.45;39.60;102201.44;5123446;27;20031;-67
2023/02/16 06:47:15;;;;;;;10.73;8.77;;;;;;;18.48;39.67;102207.38;5123704;27;20050;-68
2023/02/16 06:49:40;;;;;;;10.00;8.20;;;;;;;18.47;40.09;102218.88;5123096;27;20657;-65
2023/02/16 06:52:05;;;;;;;11.82;7.97;;;;;;;18.51;40.24;102230.09;5123354;27;20039;-64
2023/02/16 06:54:31;;;;;;;11.23;8.18;;;;;;;18.49;40.43;102232.81;5123582;27;20581;-66
2023/02/16 06:56:56;;;;;;;9.60;7.35;;;;;;;18.54;40.46;102226.44;5123809;27;20035;-63
2023/02/16 06:59:21;;;;;;;12.27;8.00;;;;;;;18.55;40.61;102231.63;5123714;27;20074;-63
2023/02/16 07:01:47;;;;;;;11.40;7.35;;;;;;;18.57;40.74;102224.44;5123392;27;20035;-64
2023/02/16 07:04:12;;;;;;;12.00;8.00;;;;;;;18.59;40.79;102219.06;5123054;27;20209;-65
2023/02/16 07:06:37;;;;;;;11.88;7.82;;;;;;;18.60;41.21;102223.41;5123588;27;20071;-64
2023/02/16 07:09:03;;;;;;;12.20;8.25;;;;;;;18.62;41.29;102229.44;5123398;27;20399;-62
2023/02/16 07:11:28;;;;;;;12.57;8.45;;;;;;;18.62;41.33;102238.22;5123494;27;20035;-67
2023/02/16 07:13:54;;;;;;;12.82;9.20;;;;;;;18.63;41.21;102231.16;5104679;27;20383;-64
2023/02/16 07:16:19;;;;;;;13.82;8.77;;;;;;;18.66;41.25;102230.97;5123206;27;20079;-65
2023/02/16 07:18:45;;;;;;;11.13;7.63;;;;;;;18.63;41.17;102217.94;5122700;27;20027;-67
2023/02/16 07:21:11;;;;;;;10.93;8.25;;;;;;;18.68;41.41;102226.44;5123384;27;20459;-66
2023/02/16 07:23:36;;;;;;;11.80;7.95;;;;;;;18.65;41.42;102231.91;5122990;27;20053;-65
2023/02/16 07:26:02;;;;;;;11.40;7.50;;;;;;;18.68;41.87;102234.34;5122785;27;20030;-66
2023/02/16 07:28:27;;;;;;;11.10;7.80;;;;;;;18.69;42.25;102233.38;5122608;27;20087;-65
2023/02/16 07:30:52;;;;;;;10.43;7.80;;;;;;;18.71;42.01;102242.09;5122993;27;20075;-65
2023/02/16 07:33:18;;;;;;;13.63;7.70;;;;;;;18.74;42.23;102233.09;5121814;27;20023;-66
2023/02/16 07:35:43;;;;;;;13.00;8.05;;;;;;;18.72;42.28;102237.66;5121661;27;20076;-64
2023/02/16 07:38:09;;;;;;;11.75;7.53;;;;;;;18.74;42.57;102236.63;5120934;27;20083;-67
2023/02/16 07:40:35;;;;;;;11.23;7.30;;;;;;;18.77;42.45;102230.28;5122233;27;21043;-65
2023/02/16 07:43:02;;;;;;;11.93;7.47;;;;;;;18.75;42.54;102226.91;5123008;27;20075;-66
2023/02/16 07:45:28;;;;;;;13.85;7.57;;;;;;;18.74;42.77;102231.34;5122083;27;20038;-65
2023/02/16 07:47:53;;;;;;;12.25;7.65;;;;;;;18.76;42.95;102247.09;5122737;27;20027;-64
2023/02/16 07:50:18;;;;;;;11.63;8.18;;;;;;;18.76;42.94;102241.81;5122382;27;20123;-65
2023/02/16 07:52:43;;;;;;;11.65;8.38;;;;;;;18.80;43.07;102251.22;5122692;27;20046;-64
2023/02/16 07:55:10;;;;;;;11.52;7.28;;;;;;;18.80;42.97;102257.38;5122232;27;20479;-65
2023/02/16 07:57:37;;;;;;;12.55;8.00;;;;;;;18.80;43.45;102241.53;5122490;27;20123;-67
2023/02/16 08:00:04;;;;;;;13.85;7.82;;;;;;;18.77;43.19;102240.84;5122512;27;20027;-65
2023/02/16 08:02:29;;;;;;;11.32;7.55;;;;;;;18.81;43.33;102247.66;5121428;27;20844;-65
2023/02/16 08:04:54;;;;;;;12.07;8.20;;;;;;;18.79;43.29;102231.88;5122126;27;20027;-64
2023/02/16 08:07:20;;;;;;;10.95;7.38;;;;;;;18.80;43.39;102233.59;5122188;27;20035;-64
2023/02/16 08:09:46;;;;;;;10.93;7.88;;;;;;;18.83;43.30;102249.25;5122403;27;20356;-65
2023/02/16 08:12:13;;;;;;;12.30;7.07;;;;;;;18.79;43.27;102237.16;5122178;27;20035;-66
2023/02/16 08:14:38;;;;;;;13.02;7.75;;;;;;;18.83;43.39;102243.97;5121981;27;20559;-65
2023/02/16 08:17:07;;;;;;;10.10;6.82;;;;;;;18.83;43.30;102232.53;5120651;27;20031;-66
2023/02/16 08:19:33;;;;;;;11.25;7.68;;;;;;;18.81;43.41;102235.28;5121832;27;20990;-67
2023/02/16 08:22:01;;;;;;;10.27;7.30;;;;;;;18.84;43.66;102243.03;5122126;27;20118;-64
2023/02/16 08:24:26;;;;;;;12.00;8.02;;;;;;;18.82;43.61;102250.19;5121860;27;20129;-66
2023/02/16 08:26:52;;;;;;;10.18;7.03;;;;;;;18.85;43.52;102251.84;5121897;27;20075;-66
2023/02/16 08:29:19;;;;;;;14.32;7.10;;;;;;;18.84;43.51;102252.78;5122470;28;20035;-64
2023/02/16 08:31:45;;;;;;;11.40;7.78;;;;;;;18.88;43.43;102264.81;5122039;27;20470;-64
2023/02/16 08:34:13;;;;;;;10.90;7.03;;;;;;;18.87;43.66;102264.91;5121609;28;20027;-69
2023/02/16 08:36:39;;;;;;;10.38;7.30;;;;;;;18.84;43.70;102253.59;5121896;28;20051;-68
2023/02/16 08:39:10;;;;;;;11.85;7.65;;;;;;;18.84;43.61;102260.69;5121963;27;20035;-62
2023/02/16 08:41:37;;;;;;;11.60;7.57;;;;;;;18.87;42.81;102263.16;5121873;28;20031;-67
2023/02/16 08:44:03;;;;;;;12.68;7.80;;;;;;;18.88;42.95;102264.81;5121717;28;20039;-69
2023/02/16 08:46:29;;;;;;;9.77;6.97;;;;;;;18.84;42.82;102261.53;5121431;27;20379;-63
2023/02/16 08:48:58;;;;;;;9.10;7.30;;;;;;;18.88;42.66;102264.00;5124043;27;20126;-64
2023/02/16 08:51:24;;;;;;;11.10;7.10;;;;;;;18.88;42.36;102264.00;5126049;27;20118;-66
2023/02/16 08:53:51;;;;;;;11.82;8.45;;;;;;;18.89;41.93;102268.34;5122744;27;20121;-65
2023/02/16 08:56:17;;;;;;;11.98;8.20;;;;;;;18.86;41.88;102256.16;5124504;27;20115;-67
2023/02/16 08:58:42;;;;;;;14.68;8.68;;;;;;;18.94;41.82;102277.66;5125021;27;20505;-68
2023/02/16 09:01:09;;;;;;;14.85;8.32;;;;;;;18.94;41.68;102279.47;5125181;27;20035;-66
2023/02/16 09:03:37;;;;;;;11.70;8.10;;;;;;;18.93;41.41;102280.38;5124948;27;20030;-67
2023/02/16 09:06:04;;;;;;;12.07;8.32;;;;;;;18.90;41.55;102276.16;5125023;27;20035;-67
2023/02/16 09:08:31;;;;;;;13.50;8.13;;;;;;;18.95;41.72;102291.72;5125079;27;20023;-66
2023/02/16 09:11:05;;;;;;;11.52;7.60;;;;;;;18.92;41.62;102291.91;5125250;27;20032;-67
2023/02/16 09:13:33;;;;;;;10.68;7.90;;;;;;;18.98;41.26;102299.47;5125357;27;20504;-66
2023/02/16 09:16:02;;;;;;;9.35;7.25;;;;;;;18.95;41.32;102291.72;5124324;27;20047;-66
2023/02/16 09:18:28;;;;;;;11.82;7.68;;;;;;;19.00;41.31;102294.94;5125055;27;20142;-68
2023/02/16 09:20:53;;;;;;;12.13;7.25;;;;;;;19.03;41.24;102295.59;5124928;27;20121;-67
2023/02/16 09:23:20;;;;;;;11.60;7.03;;;;;;;19.02;41.25;102290.41;5125124;27;20038;-67
2023/02/16 09:25:45;;;;;;;13.15;7.68;;;;;;;19.03;40.96;102295.59;5123776;27;20294;-68
2023/02/16 09:28:11;;;;;;;17.45;9.13;;;;;;;19.02;40.77;102291.22;5122702;27;20038;-67
2023/02/16 09:30:37;;;;;;;16.77;8.35;;;;;;;19.03;41.04;102302.66;5124510;27;20368;-67
2023/02/16 09:33:03;;;;;;;12.45;9.30;;;;;;;19.05;40.52;102300.78;5124569;27;20904;-65
2023/02/16 09:35:29;;;;;;;15.52;10.00;;;;;;;19.03;40.62;102289.47;5125149;27;20031;-66
2023/02/16 09:37:54;;;;;;;13.63;9.18;;;;;;;19.04;40.90;102283.22;5125309;27;20589;-66
2023/02/16 09:40:20;;;;;;;12.93;8.73;;;;;;;19.05;40.78;102279.63;5125209;27;20118;-66
2023/02/16 09:43:06;;;;;;;13.30;8.63;;;;;;;19.05;40.90;102270.88;5124469;27;20034;-65
2023/02/16 09:45:40;;;;;;;10.00;7.35;;;;;;;19.07;40.88;102271.59;5103709;27;20772;-65
2023/02/16 09:48:17;;;;;;;12.60;7.93;;;;;;;19.17;41.10;102275.38;5123432;27;20031;-65
2023/02/16 09:50:42;;;;;;;10.88;7.25;;;;;;;19.24;40.78;102281.97;5123925;27;20031;-65
2023/02/16 09:53:23;;;;;;;10.00;7.60;;;;;;;19.20;41.00;102272.53;5124464;27;20077;-66
2023/02/16 09:56:07;;;;;;;10.35;7.05;;;;;;;19.20;40.91;102272.53;5124013;27;20471;-65
2023/02/16 09:58:40;;;;;;;;;;;;;;;19.28;40.82;102290.53;5123965;27;20023;-65
2023/02/16 10:01:55;;;;;;;9.57;7.07;;;;;;;19.28;40.93;102296.69;5123512;27;19969;-65
2023/02/16 10:04:33;;;;;;;10.43;7.20;;;;;;;19.26;40.83;102284.50;5027356;28;20026;-65
2023/02/16 10:07:43;;;;;;;11.98;7.32;;;;;;;19.19;41.15;102276.13;5033084;28;20075;-64
2023/02/16 10:10:15;;;;;;;11.68;6.90;;;;;;;19.19;41.13;102287.53;5036534;28;20140;-65
2023/02/16 10:12:49;;;;;;;13.60;7.18;;;;;;;19.13;41.30;102285.28;5041103;28;20136;-63
2023/02/16 10:15:23;;;;;;;9.18;6.57;;;;;;;19.12;41.53;102280.09;5090942;27;20051;-66
2023/02/16 10:17:57;;;;;;;;;;;;;;;19.20;41.45;102289.25;5125443;27;20054;-63
2023/02/16 10:20:34;;;;;;;14.05;7.50;;;;;;;19.15;41.32;102278.13;5124823;27;19938;-63
2023/02/16 10:23:25;;;;;;;11.75;7.30;;;;;;;19.15;41.56;102278.13;5124769;27;20430;-63
2023/02/16 10:26:05;;;;;;;12.25;7.15;;;;;;;19.10;41.62;102276.72;5124033;27;20044;-63
2023/02/16 10:28:35;;;;;;;9.95;7.15;;;;;;;19.13;41.70;102292.38;5124122;27;20558;-65
2023/02/16 10:31:04;;;;;;;11.60;7.85;;;;;;;19.07;41.66;102280.38;5124370;27;20475;-64
2023/02/16 10:33:42;;;;;;;9.68;6.78;;;;;;;19.07;41.87;102283.03;5124023;27;20039;-62
2023/02/16 10:36:38;;;;;;;9.80;6.93;;;;;;;19.09;41.88;102280.28;5123625;27;20059;-64
2023/02/16 10:39:13;;;;;;;10.52;7.20;;;;;;;19.08;42.09;102282.09;5096920;27;20125;-64
2023/02/16 10:41:42;;;;;;;;;;;;;;;19.12;41.97;102286.25;5124017;27;20401;-63
2023/02/16 10:44:20;;;;;;;10.75;7.03;;;;;;;19.08;42.23;102281.25;5124198;27;19918;-65
2023/02/16 10:46:54;;;;;;;9.82;7.05;;;;;;;19.08;42.17;102289.19;5123769;27;20116;-62
2023/02/16 10:49:20;;;;;;;9.90;7.18;;;;;;;19.10;42.20;102287.28;5123978;27;20045;-65
2023/02/16 10:51:48;;;;;;;9.43;6.63;;;;;;;19.04;42.22;102283.22;5123742;27;20031;-63
2023/02/16 10:54:20;;;;;;;10.18;6.95;;;;;;;18.92;42.24;102274.28;5123486;27;20035;-65
2023/02/16 10:56:53;;;;;;;10.95;6.63;;;;;;;19.05;42.71;102303.41;5123523;27;20983;-65
2023/02/16 10:59:37;;;;;;;9.52;7.20;;;;;;;19.06;42.36;102314.81;5123380;27;20038;-65
2023/02/16 11:02:16;;;;;;;8.50;6.40;;;;;;;19.03;42.32;102294.75;5123867;27;20034;-63
2023/02/16 11:04:45;;;;;;;8.85;6.32;;;;;;;19.05;42.26;102278.78;5123435;27;20387;-67
2023/02/16 11:07:16;;;;;;;13.38;6.57;;;;;;;19.07;42.20;102311.25;5123562;27;20027;-64
2023/02/16 11:09:44;;;;;;;8.52;6.40;;;;;;;19.08;42.42;102294.47;5123663;27;20376;-65
2023/02/16 11:12:27;;;;;;;10.15;6.10;;;;;;;19.05;42.21;102282.28;5123688;27;20035;-68
2023/02/16 11:14:56;;;;;;;9.43;6.90;;;;;;;19.04;42.29;102288.50;5123006;27;20112;-65
2023/02/16 11:17:22;;;;;;;11.02;6.60;;;;;;;19.05;42.31;102279.63;5123169;27;20133;-67
2023/02/16 11:19:56;;;;;;;10.10;6.80;;;;;;;19.06;42.15;102280.47;5123665;27;20106;-65
2023/02/16 11:22:30;;;;;;;;;;;;;;;19.10;42.53;102272.25;5124184;27;20031;-69
2023/02/16 11:24:58;;;;;;;10.82;6.57;;;;;;;19.09;42.62;102265.28;5123169;27;19995;-65
2023/02/16 11:27:24;;;;;;;8.60;6.07;;;;;;;19.04;42.58;102256.78;5123081;27;20039;-65
2023/02/16 11:29:50;;;;;;;8.90;6.20;;;;;;;19.04;42.44;102267.34;5123453;27;20031;-66
2023/02/16 11:32:21;;;;;;;9.60;7.13;;;;;;;19.05;42.56;102269.06;5122979;27;20109;-65
2023/02/16 11:34:51;;;;;;;10.63;6.80;;;;;;;19.06;42.70;102270.78;5122822;27;20134;-67
2023/02/16 11:37:21;;;;;;;9.00;6.45;;;;;;;19.04;42.78;102259.44;5122732;27;20039;-66
2023/02/16 11:39:53;;;;;;;10.52;7.00;;;;;;;19.06;43.13;102257.56;5122840;27;20498;-67
2023/02/16 11:42:27;;;;;;;10.48;6.65;;;;;;;19.00;42.90;102242.09;5122993;27;20031;-64
2023/02/16 11:44:55;;;;;;;9.18;6.30;;;;;;;19.05;42.86;102247.94;5122278;27;20114;-65
2023/02/16 11:47:21;;;;;;;11.68;7.35;;;;;;;19.11;43.27;102252.81;5122898;27;20139;-66
2023/02/16 11:49:47;;;;;;;12.52;7.03;;;;;;;19.10;42.90;102243.19;5122671;27;20122;-65
2023/02/16 11:52:23;;;;;;;11.07;7.03;;;;;;;19.07;42.91;102239.91;5122619;27;21223;-65
2023/02/16 11:54:51;;;;;;;11.43;7.65;;;;;;;19.10;43.01;102229.97;5122234;27;20031;-69
2023/02/16 11:57:27;;;;;;;12.07;6.88;;;;;;;19.12;42.61;102232.53;5120610;27;20030;-67
2023/02/16 11:59:53;;;;;;;13.82;7.22;;;;;;;19.09;43.03;102225.66;5122346;27;20116;-67
2023/02/16 12:02:56;;;;;;;10.55;6.80;;;;;;;19.07;43.07;102216.97;5122773;27;20075;-67
2023/02/16 12:05:31;;;;;;;12.75;7.03;;;;;;;19.09;43.21;102217.72;5122102;27;20062;-68
2023/02/16 12:08:05;;;;;;;;;;;;;;;19.15;43.21;102213.84;5122994;27;20050;-66
2023/02/16 12:10:40;;;;;;;11.82;6.72;;;;;;;19.15;43.20;102220.00;5122399;27;19907;-68